Terminal Aerodrome Forecast
Issued by NWS

Home | Current Version | Previous Version | Text Only | Print | Product List | Glossary On
Versions: 1 2 3 4 5 6 7 8 9 10 11 12 13 14 15 16 17 18 19 20 21 22
000
FTUS45 KGJT 281124
TAFEGE
TAF
KEGE 281124Z 2812/2912 VRB03KT P6SM FEW110 SCT250
     FM281800 26006KT P6SM SCT250
     FM282000 24012G19KT P6SM FEW100 SCT250
     FM290100 23007KT P6SM SCT250
     FM290200 15005KT P6SM SCT250
      AMD LTD TO CLD VIS AND WIND TIL 281300=

USA.gov is the U.S. government's official web portal to all federal, state and local government web resources and services.